createdAt,value
2022-10-23T00:01:31.806Z,92.98
2022-10-23T00:04:21.014Z,93.98
2022-10-23T00:06:49.465Z,87.72
2022-10-23T00:09:22.871Z,86.47
2022-10-23T00:11:51.082Z,85.73
2022-10-23T00:14:21.531Z,86.52
2022-10-23T00:16:49.064Z,84.93
2022-10-23T00:19:16.410Z,85.64
2022-10-23T00:21:44.080Z,87.55
2022-10-23T00:24:11.452Z,88.16
2022-10-23T00:26:40.543Z,90.09
2022-10-23T00:29:08.951Z,86.42
2022-10-23T00:31:36.996Z,84.09
2022-10-23T00:34:08.094Z,84.81
2022-10-23T00:36:36.169Z,87.65
2022-10-23T00:39:04.573Z,90.31
2022-10-23T00:41:32.717Z,90.37
2022-10-23T00:44:07.150Z,89.87
2022-10-23T00:46:35.339Z,90.62
2022-10-23T00:49:04.492Z,90.99
2022-10-23T00:51:36.436Z,89.08
2022-10-23T00:54:23.909Z,87.60
2022-10-23T00:56:55.210Z,84.73
2022-10-23T00:59:23.247Z,85.58
2022-10-23T01:01:50.890Z,84.60
2022-10-23T01:04:18.676Z,84.98
2022-10-23T01:07:01.957Z,87.97
2022-10-23T01:09:34.829Z,90.25
2022-10-23T01:12:22.553Z,88.37
2022-10-23T01:14:58.867Z,89.70
2022-10-23T01:17:44.412Z,92.11
2022-10-23T01:20:40.029Z,94.67
2022-10-23T01:23:32.917Z,98.39
2022-10-23T01:26:20.657Z,95.21
2022-10-23T01:28:55.995Z,97.34
2022-10-23T01:31:30.983Z,94.88
2022-10-23T01:34:03.104Z,98.49
2022-10-23T01:36:32.156Z,100.00
2022-10-23T01:41:40.574Z,100.00
2022-10-23T01:44:17.760Z,99.76
2022-10-23T01:46:47.078Z,99.94
2022-10-23T01:49:15.105Z,100.00
2022-10-23T01:52:00.535Z,99.91
2022-10-23T01:54:34.141Z,100.00
2022-10-23T01:57:02.942Z,100.00
2022-10-23T01:59:35.274Z,100.00
2022-10-23T02:02:04.958Z,100.00
2022-10-23T02:04:41.124Z,100.00
2022-10-23T02:07:08.829Z,100.00
2022-10-23T02:09:36.580Z,100.00
2022-10-23T02:12:09.610Z,100.00
2022-10-23T02:14:43.405Z,100.00
2022-10-23T02:17:19.421Z,100.00
2022-10-23T02:19:51.200Z,100.00
2022-10-23T02:22:25.714Z,100.00
2022-10-23T02:24:58.110Z,100.00
2022-10-23T02:27:40.822Z,100.00
2022-10-23T02:30:10.461Z,100.00
2022-10-23T02:32:42.712Z,100.00
2022-10-23T02:35:11.509Z,100.00
2022-10-23T02:37:39.626Z,100.00
2022-10-23T02:40:09.677Z,100.00
2022-10-23T02:42:47.328Z,100.00
2022-10-23T02:45:28.160Z,100.00
2022-10-23T02:48:01.915Z,100.00
2022-10-23T02:50:38.581Z,100.00
2022-10-23T02:53:29.179Z,100.00
2022-10-23T02:56:15.608Z,100.00
2022-10-23T02:59:06.208Z,100.00
2022-10-23T03:01:40.232Z,100.00
2022-10-23T03:04:09.317Z,100.00
2022-10-23T03:06:37.332Z,100.00
2022-10-23T03:09:07.907Z,100.00
2022-10-23T03:11:35.677Z,100.00
2022-10-23T03:14:03.592Z,100.00
2022-10-23T03:16:31.009Z,100.00
2022-10-23T03:18:58.420Z,99.26
2022-10-23T03:21:26.161Z,92.69
2022-10-23T03:23:53.646Z,91.18
2022-10-23T03:26:21.550Z,94.05
2022-10-23T03:28:49.182Z,98.22
2022-10-23T03:31:16.719Z,100.00
2022-10-23T03:33:44.504Z,100.00
2022-10-23T03:36:12.336Z,100.00
2022-10-23T03:38:40.397Z,100.00
2022-10-23T03:41:07.812Z,100.00
2022-10-23T03:43:35.481Z,100.00
2022-10-23T03:46:03.020Z,98.62
2022-10-23T03:48:30.364Z,99.46
2022-10-23T03:50:58.231Z,99.39
2022-10-23T03:53:25.617Z,98.67
2022-10-23T03:55:53.446Z,97.27
2022-10-23T03:58:21.046Z,98.12
2022-10-23T04:00:49.347Z,98.80
2022-10-23T04:03:16.962Z,98.68
2022-10-23T04:05:44.312Z,97.70
2022-10-23T04:08:14.118Z,97.58
2022-10-23T04:10:43.978Z,98.87
2022-10-23T04:13:11.359Z,100.00
2022-10-23T04:15:38.791Z,100.00
2022-10-23T04:18:06.407Z,99.40
2022-10-23T04:20:33.772Z,96.16
2022-10-23T04:23:01.838Z,99.12
2022-10-23T04:25:29.515Z,100.00
2022-10-23T04:27:56.842Z,99.16
2022-10-23T04:30:24.199Z,99.49
2022-10-23T04:32:52.205Z,100.00
2022-10-23T04:35:20.247Z,100.00
2022-10-23T04:37:47.648Z,100.00
2022-10-23T04:40:15.325Z,100.00
2022-10-23T04:42:42.996Z,100.00
2022-10-23T04:45:10.896Z,100.00
2022-10-23T04:47:40.992Z,100.00
2022-10-23T04:50:08.345Z,100.00
2022-10-23T04:52:35.755Z,100.00
2022-10-23T04:55:04.077Z,100.00
2022-10-23T04:57:31.565Z,99.93
2022-10-23T04:59:59.197Z,98.85
2022-10-23T05:02:27.738Z,91.92
2022-10-23T05:04:55.286Z,91.87
2022-10-23T05:07:27.298Z,84.17
2022-10-23T05:09:55.076Z,83.27
2022-10-23T05:12:25.427Z,82.95
2022-10-23T05:14:53.464Z,89.78
2022-10-23T05:17:24.344Z,93.20
2022-10-23T05:22:25.714Z,96.22
2022-10-23T05:24:53.927Z,97.53
2022-10-23T05:27:21.975Z,99.13
2022-10-23T05:29:50.913Z,100.00
2022-10-23T05:32:19.077Z,97.54
2022-10-23T05:34:46.892Z,98.57
2022-10-23T05:37:15.733Z,98.86
2022-10-23T05:39:43.526Z,97.38
2022-10-23T05:42:11.286Z,94.38
2022-10-23T05:44:38.981Z,87.19
2022-10-23T05:47:07.773Z,91.09
2022-10-23T05:49:36.246Z,95.40
2022-10-23T05:52:07.435Z,95.52
2022-10-23T05:54:34.916Z,95.27
2022-10-23T05:57:03.151Z,97.00
2022-10-23T05:59:30.713Z,98.67
2022-10-23T06:01:58.431Z,99.16
2022-10-23T06:04:27.269Z,99.71
2022-10-23T06:06:55.165Z,100.00
2022-10-23T06:09:23.901Z,100.00
2022-10-23T06:11:54.072Z,100.00
2022-10-23T06:14:22.458Z,100.00
2022-10-23T06:16:50.237Z,100.00
2022-10-23T06:19:18.194Z,100.00
2022-10-23T06:21:45.772Z,100.00
2022-10-23T06:24:13.437Z,100.00
2022-10-23T06:26:42.472Z,99.43
2022-10-23T06:29:09.926Z,98.74
2022-10-23T06:31:37.462Z,98.68
2022-10-23T06:34:06.155Z,99.85
2022-10-23T06:36:33.675Z,100.00
2022-10-23T06:39:01.621Z,100.00
2022-10-23T06:41:33.872Z,100.00
2022-10-23T06:44:01.755Z,100.00
2022-10-23T06:46:35.111Z,100.00
2022-10-23T06:49:03.818Z,100.00
2022-10-23T06:51:31.798Z,100.00
2022-10-23T06:53:59.644Z,98.40
2022-10-23T06:56:30.383Z,94.50
2022-10-23T06:58:59.676Z,94.60
2022-10-23T07:01:27.313Z,98.72
2022-10-23T07:03:55.038Z,97.60
2022-10-23T07:06:24.149Z,99.54
2022-10-23T07:08:52.248Z,96.97
2022-10-23T07:11:21.244Z,89.49
2022-10-23T07:13:49.351Z,86.02
2022-10-23T07:16:20.174Z,85.73
2022-10-23T07:18:49.214Z,87.06
2022-10-23T07:21:19.293Z,86.17
2022-10-23T07:23:47.625Z,86.23
2022-10-23T07:26:16.062Z,85.84
2022-10-23T07:28:45.117Z,86.37
2022-10-23T07:31:14.037Z,90.14
2022-10-23T07:33:43.424Z,89.82
2022-10-23T07:36:13.498Z,87.49
2022-10-23T07:38:41.450Z,86.89
2022-10-23T07:41:11.601Z,85.24
2022-10-23T07:43:40.059Z,85.61
2022-10-23T07:46:09.865Z,87.50
2022-10-23T07:48:38.658Z,87.42
2022-10-23T07:51:13.344Z,93.61
2022-10-23T07:53:41.902Z,88.58
2022-10-23T07:56:29.750Z,95.40
2022-10-23T07:58:59.151Z,96.16
2022-10-23T08:01:35.127Z,93.47
2022-10-23T08:04:03.595Z,87.53
2022-10-23T08:06:31.238Z,91.03
2022-10-23T08:09:00.908Z,92.87
2022-10-23T08:11:35.394Z,91.78
2022-10-23T08:14:05.300Z,90.86
2022-10-23T08:16:36.122Z,94.17
2022-10-23T08:19:06.846Z,91.59
2022-10-23T08:21:34.795Z,95.10
2022-10-23T08:24:02.584Z,90.01
2022-10-23T08:26:30.462Z,87.28
2022-10-23T08:28:59.048Z,84.68
2022-10-23T08:31:26.762Z,80.80
2022-10-23T08:33:55.834Z,79.37
2022-10-23T08:36:28.849Z,85.93
2022-10-23T08:38:57.587Z,85.07
2022-10-23T08:41:34.501Z,80.18
2022-10-23T08:44:07.852Z,78.24
2022-10-23T08:46:41.631Z,78.90
2022-10-23T08:49:35.767Z,77.74
2022-10-23T08:52:14.050Z,76.04
2022-10-23T08:54:52.024Z,75.94
2022-10-23T08:57:22.391Z,80.00
2022-10-23T08:59:59.480Z,78.00
2022-10-23T09:02:30.842Z,77.72
2022-10-23T09:04:58.881Z,77.76
2022-10-23T09:07:47.508Z,77.74
2022-10-23T09:10:37.436Z,78.78
2022-10-23T09:13:43.569Z,75.38
2022-10-23T09:16:31.516Z,77.92
2022-10-23T09:18:59.514Z,79.05
2022-10-23T09:21:28.344Z,77.38
2022-10-23T09:23:56.376Z,78.33
2022-10-23T09:26:23.764Z,78.55
2022-10-23T09:28:55.400Z,78.11
2022-10-23T09:31:22.791Z,77.78
2022-10-23T09:34:01.703Z,76.25
2022-10-23T09:36:29.589Z,73.60
2022-10-23T09:38:58.996Z,73.81
2022-10-23T09:41:37.962Z,73.53
2022-10-23T09:44:08.827Z,74.97
2022-10-23T09:47:09.175Z,73.42
2022-10-23T09:49:40.062Z,72.37
2022-10-23T09:52:10.203Z,70.78
2022-10-23T09:54:44.682Z,71.04
2022-10-23T09:57:34.138Z,68.63
2022-10-23T10:00:07.986Z,68.44
2022-10-23T10:02:39.117Z,68.94
2022-10-23T10:05:31.043Z,65.95
2022-10-23T10:08:05.629Z,67.09
2022-10-23T10:10:37.016Z,69.76
2022-10-23T10:13:26.440Z,67.07
2022-10-23T10:16:01.039Z,67.80
2022-10-23T10:18:41.504Z,69.34
2022-10-23T10:21:13.712Z,67.34
2022-10-23T10:23:45.262Z,66.31
2022-10-23T10:26:25.121Z,66.95
2022-10-23T10:29:13.972Z,68.19
2022-10-23T10:31:53.744Z,67.76
2022-10-23T10:34:30.099Z,68.05
2022-10-23T10:37:00.023Z,68.13
2022-10-23T10:39:53.751Z,68.46
2022-10-23T10:42:49.612Z,68.79
2022-10-23T10:45:27.825Z,69.18
2022-10-23T10:48:22.871Z,65.58
2022-10-23T10:51:00.715Z,68.11
2022-10-23T10:54:24.216Z,67.18
2022-10-23T10:56:51.628Z,67.63
2022-10-23T10:59:31.080Z,69.04
2022-10-23T11:02:13.862Z,67.92
2022-10-23T11:04:50.571Z,67.16
2022-10-23T11:07:22.158Z,66.00
2022-10-23T11:09:50.219Z,64.55
2022-10-23T11:12:26.887Z,63.83
2022-10-23T11:14:54.502Z,62.54
2022-10-23T11:17:35.851Z,61.17
2022-10-23T11:20:15.880Z,59.66
2022-10-23T11:22:50.345Z,57.74
2022-10-23T11:25:28.666Z,56.50
2022-10-23T11:28:04.419Z,58.55
2022-10-23T11:31:12.341Z,58.13
2022-10-23T11:33:52.135Z,58.28
2022-10-23T11:36:32.584Z,55.92
2022-10-23T11:39:15.053Z,56.62
2022-10-23T11:41:49.941Z,57.81
2022-10-23T11:44:40.423Z,55.81
2022-10-23T11:47:26.747Z,57.47
2022-10-23T11:50:09.320Z,61.41
2022-10-23T11:52:45.697Z,61.96
2022-10-23T11:55:29.542Z,61.63
2022-10-23T11:58:20.449Z,56.76
2022-10-23T12:00:55.378Z,58.50
2022-10-23T12:03:28.608Z,57.42
2022-10-23T12:06:05.911Z,57.62
2022-10-23T12:08:36.108Z,56.75
2022-10-23T12:11:03.574Z,55.15
2022-10-23T12:13:37.635Z,54.25
2022-10-23T12:16:07.596Z,54.12
2022-10-23T12:18:53.074Z,57.24
2022-10-23T12:21:28.436Z,60.57
2022-10-23T12:24:14.316Z,57.08
2022-10-23T12:26:55.420Z,61.90
2022-10-23T12:29:40.950Z,60.29
2022-10-23T12:32:38.138Z,60.05
2022-10-23T12:35:17.802Z,57.43
2022-10-23T12:37:49.749Z,58.14
2022-10-23T12:40:17.801Z,57.38
2022-10-23T12:42:51.074Z,57.05
2022-10-23T12:45:19.722Z,57.97
2022-10-23T12:47:48.916Z,58.50
2022-10-23T12:50:22.336Z,59.12
2022-10-23T12:52:58.456Z,58.19
2022-10-23T12:55:30.864Z,57.25
2022-10-23T12:58:01.195Z,58.65
2022-10-23T13:00:51.109Z,59.08
2022-10-23T13:03:20.758Z,58.98
2022-10-23T13:05:50.469Z,58.00
2022-10-23T13:08:18.693Z,58.63
2022-10-23T13:10:48.439Z,59.80
2022-10-23T13:13:22.304Z,60.38
2022-10-23T13:15:50.375Z,59.38
2022-10-23T13:18:18.263Z,60.76
2022-10-23T13:20:51.724Z,60.72
2022-10-23T13:23:31.405Z,60.67
2022-10-23T13:26:03.210Z,62.93
2022-10-23T13:28:49.103Z,62.80
2022-10-23T13:31:16.368Z,62.18
2022-10-23T13:33:46.547Z,61.63
2022-10-23T13:36:13.789Z,61.60
2022-10-23T13:38:43.289Z,62.18
2022-10-23T13:41:19.574Z,61.48
2022-10-23T13:43:47.772Z,62.10
2022-10-23T13:46:20.455Z,62.43
2022-10-23T13:48:48.588Z,61.20
2022-10-23T13:51:24.614Z,60.32
2022-10-23T13:53:52.836Z,61.67
2022-10-23T13:56:22.295Z,60.90
2022-10-23T13:58:49.990Z,62.00
2022-10-23T14:01:30.005Z,63.27
2022-10-23T14:03:58.776Z,65.34
2022-10-23T14:06:26.307Z,65.14
2022-10-23T14:08:53.700Z,65.74
2022-10-23T14:11:21.799Z,66.53
2022-10-23T14:13:49.582Z,65.24
2022-10-23T14:16:19.175Z,66.63
2022-10-23T14:18:47.510Z,67.93
2022-10-23T14:21:17.798Z,67.95
2022-10-23T14:23:45.176Z,68.12
2022-10-23T14:26:15.450Z,69.32
2022-10-23T14:28:43.130Z,67.93
2022-10-23T14:31:16.584Z,68.16
2022-10-23T14:33:45.876Z,68.70
2022-10-23T14:36:13.353Z,69.00
2022-10-23T14:38:40.747Z,68.64
2022-10-23T14:41:12.986Z,69.82
2022-10-23T14:43:40.762Z,69.89
2022-10-23T14:46:35.615Z,70.14
2022-10-23T14:49:02.956Z,69.66
2022-10-23T14:51:31.204Z,69.83
2022-10-23T14:54:03.634Z,70.97
2022-10-23T14:56:37.758Z,71.87
2022-10-23T14:59:05.387Z,71.67
2022-10-23T15:01:36.259Z,72.00
2022-10-23T15:04:04.559Z,71.68
2022-10-23T15:06:33.271Z,71.38
2022-10-23T15:09:01.340Z,71.68
2022-10-23T15:11:28.973Z,72.84
2022-10-23T15:13:56.930Z,72.21
2022-10-23T15:16:24.808Z,72.58
2022-10-23T15:18:52.564Z,72.68
2022-10-23T15:21:20.123Z,71.78
2022-10-23T15:23:47.848Z,73.23
2022-10-23T15:26:21.166Z,72.57
2022-10-23T15:28:59.696Z,73.27
2022-10-23T15:31:30.583Z,72.81
2022-10-23T15:33:58.895Z,72.53
2022-10-23T15:36:27.071Z,73.35
2022-10-23T15:38:54.597Z,73.94
2022-10-23T15:41:28.416Z,75.33
2022-10-23T15:43:56.016Z,74.02
2022-10-23T15:46:23.633Z,73.47
2022-10-23T15:48:51.272Z,72.14
2022-10-23T15:51:20.137Z,72.11
2022-10-23T15:53:49.354Z,72.29
2022-10-23T15:56:17.175Z,71.97
2022-10-23T15:58:44.638Z,72.38
2022-10-23T16:01:12.898Z,73.05
2022-10-23T16:03:40.688Z,73.29
2022-10-23T16:06:10.900Z,73.84
2022-10-23T16:08:38.692Z,75.07
2022-10-23T16:11:14.618Z,73.78
2022-10-23T16:13:43.655Z,73.28
2022-10-23T16:16:11.921Z,73.24
2022-10-23T16:18:40.414Z,73.70
2022-10-23T16:21:07.872Z,74.84
2022-10-23T16:23:35.608Z,73.39
2022-10-23T16:26:06.294Z,74.28
2022-10-23T16:28:33.761Z,73.99
2022-10-23T16:31:01.618Z,75.17
2022-10-23T16:33:29.007Z,73.17
2022-10-23T16:36:03.153Z,73.63
2022-10-23T16:38:31.260Z,74.37
2022-10-23T16:40:59.919Z,73.71
2022-10-23T16:43:29.942Z,72.26
2022-10-23T16:46:03.404Z,73.84
2022-10-23T16:48:31.736Z,72.82
2022-10-23T16:50:59.850Z,73.46
2022-10-23T16:53:29.293Z,72.51
2022-10-23T16:55:57.576Z,72.03
2022-10-23T16:58:26.637Z,71.54
2022-10-23T17:01:06.087Z,71.52
2022-10-23T17:03:37.470Z,70.98
2022-10-23T17:06:10.369Z,72.12
2022-10-23T17:08:40.015Z,71.63
2022-10-23T17:11:11.827Z,71.46
2022-10-23T17:13:45.232Z,70.73
2022-10-23T17:16:16.371Z,71.82
2022-10-23T17:18:44.948Z,72.23
2022-10-23T17:21:14.270Z,72.05
2022-10-23T17:23:42.550Z,72.68
2022-10-23T17:26:12.540Z,72.04
2022-10-23T17:28:42.731Z,72.09
2022-10-23T17:31:22.272Z,72.02
2022-10-23T17:33:53.094Z,72.43
2022-10-23T17:36:22.003Z,72.52
2022-10-23T17:38:49.744Z,71.96
2022-10-23T17:41:19.483Z,72.27
2022-10-23T17:43:48.624Z,71.95
2022-10-23T17:46:18.372Z,72.13
2022-10-23T17:48:46.178Z,72.96
2022-10-23T17:51:17.667Z,72.53
2022-10-23T17:53:47.484Z,71.58
2022-10-23T17:56:25.977Z,70.94
2022-10-23T17:58:56.195Z,72.37
2022-10-23T18:01:26.404Z,72.42
2022-10-23T18:03:55.677Z,70.99
2022-10-23T18:06:29.597Z,71.38
2022-10-23T18:08:58.541Z,71.82
2022-10-23T18:11:29.727Z,72.04
2022-10-23T18:16:28.298Z,70.47
2022-10-23T18:18:56.703Z,71.33
2022-10-23T18:21:28.639Z,72.48
2022-10-23T18:23:59.157Z,72.49
2022-10-23T18:26:29.023Z,72.83
2022-10-23T18:29:01.985Z,73.98
2022-10-23T18:31:32.714Z,73.25
2022-10-23T18:34:08.468Z,75.00
2022-10-23T18:36:39.020Z,75.16
2022-10-23T18:39:09.045Z,75.28
2022-10-23T18:41:39.980Z,75.02
2022-10-23T18:44:08.393Z,73.79
2022-10-23T18:46:36.863Z,74.79
2022-10-23T18:49:04.898Z,76.26
2022-10-23T18:51:35.812Z,75.31
2022-10-23T18:54:06.576Z,74.00
2022-10-23T18:56:36.426Z,73.04
2022-10-23T18:59:06.376Z,74.21
2022-10-23T19:01:35.552Z,74.51
2022-10-23T19:04:04.026Z,73.04
2022-10-23T19:06:32.518Z,74.21
2022-10-23T19:09:01.056Z,73.20
2022-10-23T19:11:29.357Z,74.07
2022-10-23T19:13:56.786Z,73.76
2022-10-23T19:16:29.051Z,73.51
2022-10-23T19:19:00.172Z,73.84
2022-10-23T19:21:32.165Z,74.91
2022-10-23T19:24:06.694Z,74.87
2022-10-23T19:26:35.532Z,75.14
2022-10-23T19:29:03.770Z,75.53
2022-10-23T19:31:31.874Z,74.56
2022-10-23T19:34:00.446Z,76.68
2022-10-23T19:36:27.802Z,76.18
2022-10-23T19:38:55.643Z,76.09
2022-10-23T19:41:23.906Z,76.01
2022-10-23T19:43:51.933Z,75.33
2022-10-23T19:46:19.862Z,77.24
2022-10-23T19:48:48.086Z,77.23
2022-10-23T19:51:15.916Z,77.00
2022-10-23T19:53:43.802Z,76.27
2022-10-23T19:56:13.287Z,76.76
2022-10-23T19:58:41.344Z,76.65
2022-10-23T20:01:14.928Z,76.95
2022-10-23T20:03:45.074Z,76.32
2022-10-23T20:06:14.266Z,76.85
2022-10-23T20:08:42.123Z,76.52
2022-10-23T20:11:10.468Z,77.76
2022-10-23T20:13:38.929Z,79.01
2022-10-23T20:16:08.074Z,77.13
2022-10-23T20:18:36.311Z,76.33
2022-10-23T20:21:04.318Z,77.05
2022-10-23T20:23:32.204Z,77.80
2022-10-23T20:26:05.422Z,76.78
2022-10-23T20:28:34.112Z,77.39
2022-10-23T20:31:09.168Z,79.20
2022-10-23T20:33:37.195Z,77.78
2022-10-23T20:36:07.231Z,78.88
2022-10-23T20:38:35.727Z,76.54
2022-10-23T20:41:07.887Z,80.03
2022-10-23T20:43:36.008Z,79.77
2022-10-23T20:46:08.223Z,78.54
2022-10-23T20:48:40.275Z,77.81
2022-10-23T20:51:13.690Z,78.48
2022-10-23T20:53:42.146Z,79.29
2022-10-23T20:56:14.432Z,80.04
2022-10-23T20:58:43.086Z,78.58
2022-10-23T21:01:13.172Z,77.74
2022-10-23T21:03:40.650Z,77.63
2022-10-23T21:06:16.840Z,76.75
2022-10-23T21:08:44.213Z,78.05
2022-10-23T21:11:16.596Z,77.94
2022-10-23T21:13:44.765Z,78.04
2022-10-23T21:16:12.581Z,78.40
2022-10-23T21:18:47.130Z,78.00
2022-10-23T21:21:17.462Z,76.60
2022-10-23T21:23:50.043Z,77.81
2022-10-23T21:26:18.871Z,78.26
2022-10-23T21:28:56.283Z,78.48
2022-10-23T21:31:34.560Z,79.06
2022-10-23T21:34:01.973Z,78.73
2022-10-23T21:36:31.017Z,78.35
2022-10-23T21:39:01.937Z,77.24
2022-10-23T21:41:31.868Z,76.29
2022-10-23T21:44:02.356Z,76.85
2022-10-23T21:46:31.535Z,76.93
2022-10-23T21:49:00.652Z,78.12
2022-10-23T21:51:32.442Z,80.29
2022-10-23T21:54:00.058Z,80.13
2022-10-23T21:56:30.728Z,79.93
2022-10-23T21:59:00.131Z,79.16
2022-10-23T22:01:28.405Z,79.42
2022-10-23T22:03:56.298Z,79.07
2022-10-23T22:06:28.366Z,78.87
2022-10-23T22:08:57.549Z,78.96
2022-10-23T22:11:25.638Z,81.02
2022-10-23T22:13:53.430Z,78.81
2022-10-23T22:16:21.062Z,79.33
2022-10-23T22:18:48.624Z,79.18
2022-10-23T22:21:21.550Z,80.92
2022-10-23T22:23:49.560Z,80.78
2022-10-23T22:26:26.496Z,81.83
2022-10-23T22:28:55.658Z,81.07
2022-10-23T22:31:28.440Z,80.21
2022-10-23T22:33:56.449Z,80.93
2022-10-23T22:36:24.961Z,79.64
2022-10-23T22:38:53.215Z,81.42
2022-10-23T22:41:21.068Z,80.03
2022-10-23T22:43:48.567Z,78.78
2022-10-23T22:46:18.561Z,77.68
2022-10-23T22:48:46.243Z,78.71
2022-10-23T22:51:15.333Z,77.83
2022-10-23T22:53:43.130Z,78.70
2022-10-23T22:56:14.047Z,79.36
2022-10-23T22:58:42.080Z,80.25
2022-10-23T23:01:09.367Z,80.69
2022-10-23T23:03:37.661Z,81.01
2022-10-23T23:06:06.927Z,81.97
2022-10-23T23:08:35.868Z,83.21
2022-10-23T23:11:03.954Z,82.88
2022-10-23T23:13:31.662Z,81.54
2022-10-23T23:15:59.372Z,82.24
2022-10-23T23:18:27.652Z,82.99
2022-10-23T23:20:55.013Z,82.21
2022-10-23T23:23:22.355Z,81.08
2022-10-23T23:25:50.258Z,80.48
2022-10-23T23:28:19.631Z,81.46
2022-10-23T23:30:47.959Z,82.71
2022-10-23T23:33:19.216Z,82.08
2022-10-23T23:35:48.241Z,82.24
2022-10-23T23:38:15.872Z,82.28
2022-10-23T23:40:50.572Z,81.90
2022-10-23T23:43:18.371Z,81.68
2022-10-23T23:45:46.208Z,82.42
2022-10-23T23:48:13.528Z,80.49
2022-10-23T23:50:41.206Z,80.45
2022-10-23T23:53:08.608Z,81.13
2022-10-23T23:55:36.321Z,80.00
2022-10-23T23:58:04.447Z,79.78
